createdAt,value
2017-08-22T00:00:58.851Z,66.90
2017-08-22T00:03:31.664Z,66.90
2017-08-22T00:05:58.607Z,67.40
2017-08-22T00:08:25.548Z,66.80
2017-08-22T00:10:52.493Z,67.20
2017-08-22T00:13:19.370Z,67.60
2017-08-22T00:15:46.269Z,67.80
2017-08-22T00:18:13.209Z,68.30
2017-08-22T00:20:40.089Z,68.70
2017-08-22T00:23:06.968Z,68.70
2017-08-22T00:25:34.623Z,68.30
2017-08-22T00:28:01.577Z,68.20
2017-08-22T00:30:28.475Z,68.00
2017-08-22T00:32:55.360Z,67.70
2017-08-22T00:35:22.326Z,67.60
2017-08-22T00:37:49.216Z,67.30
2017-08-22T00:40:16.119Z,67.00
2017-08-22T00:42:43.892Z,66.90
2017-08-22T00:45:10.774Z,66.90
2017-08-22T00:47:37.740Z,67.20
2017-08-22T00:50:04.652Z,67.70
2017-08-22T00:52:31.569Z,67.90
2017-08-22T00:54:59.306Z,68.50
2017-08-22T00:57:26.205Z,68.50
2017-08-22T00:59:53.077Z,68.80
2017-08-22T01:02:20.009Z,69.00
2017-08-22T01:04:47.004Z,69.30
2017-08-22T01:07:14.632Z,70.10
2017-08-22T01:09:41.559Z,70.10
2017-08-22T01:12:08.449Z,70.20
2017-08-22T01:14:36.119Z,72.10
2017-08-22T01:17:03.104Z,71.20
2017-08-22T01:19:29.995Z,71.70
2017-08-22T01:21:57.025Z,72.20
2017-08-22T01:24:24.105Z,71.90
2017-08-22T01:26:51.838Z,72.00
2017-08-22T01:29:18.781Z,71.90
2017-08-22T01:31:45.812Z,71.90
2017-08-22T01:34:12.748Z,71.60
2017-08-22T01:36:39.692Z,71.50
2017-08-22T01:39:06.694Z,71.50
2017-08-22T01:41:33.643Z,71.30
2017-08-22T01:44:01.484Z,71.50
2017-08-22T01:46:28.386Z,70.90
2017-08-22T01:48:55.353Z,70.60
2017-08-22T01:51:22.243Z,69.90
2017-08-22T01:53:49.156Z,70.20
2017-08-22T01:56:16.088Z,70.80
2017-08-22T01:58:42.990Z,71.00
2017-08-22T02:01:09.936Z,71.40
2017-08-22T02:03:37.571Z,72.00
2017-08-22T02:06:04.431Z,71.30
2017-08-22T02:08:31.445Z,70.90
2017-08-22T02:10:58.336Z,70.90
2017-08-22T02:13:25.239Z,70.60
2017-08-22T02:15:52.192Z,70.40
2017-08-22T02:18:19.068Z,70.70
2017-08-22T02:20:46.739Z,71.50
2017-08-22T02:23:13.642Z,70.90
2017-08-22T02:25:40.617Z,71.00
2017-08-22T02:28:07.504Z,71.10
2017-08-22T02:30:34.405Z,71.20
2017-08-22T02:33:01.373Z,71.30
2017-08-22T02:35:28.253Z,71.00
2017-08-22T02:37:55.135Z,70.90
2017-08-22T02:40:22.104Z,70.70
2017-08-22T02:42:48.974Z,70.40
2017-08-22T02:45:15.893Z,71.30
2017-08-22T02:47:43.516Z,72.90
2017-08-22T02:50:10.490Z,72.90
2017-08-22T02:52:38.121Z,73.70
2017-08-22T02:55:04.996Z,73.60
2017-08-22T02:57:31.960Z,74.00
2017-08-22T02:59:59.659Z,74.10
2017-08-22T03:02:26.547Z,74.10
2017-08-22T03:04:54.285Z,74.40
2017-08-22T03:07:21.162Z,74.40
2017-08-22T03:09:48.059Z,74.90
2017-08-22T03:12:15.007Z,75.60
2017-08-22T03:14:41.949Z,76.40
2017-08-22T03:17:08.808Z,76.80
2017-08-22T03:19:35.732Z,76.90
2017-08-22T03:22:02.688Z,77.00
2017-08-22T03:24:29.560Z,76.70
2017-08-22T03:26:56.432Z,76.50
2017-08-22T03:29:24.139Z,77.00
2017-08-22T03:31:51.000Z,76.60
2017-08-22T03:34:17.923Z,76.90
2017-08-22T03:36:44.802Z,76.80
2017-08-22T03:39:11.745Z,76.50
2017-08-22T03:41:38.609Z,76.10
2017-08-22T03:44:05.486Z,76.10
2017-08-22T03:46:32.436Z,76.10
2017-08-22T03:48:59.313Z,76.70
2017-08-22T03:51:26.239Z,76.90
2017-08-22T03:53:53.169Z,77.10
2017-08-22T03:56:20.864Z,77.20
2017-08-22T03:58:47.720Z,77.20
2017-08-22T04:01:14.584Z,76.90
2017-08-22T04:03:41.561Z,76.50
2017-08-22T04:06:08.454Z,75.90
2017-08-22T04:08:35.345Z,75.90
2017-08-22T04:11:02.280Z,76.00
2017-08-22T04:13:29.134Z,75.70
2017-08-22T04:15:56.053Z,75.40
2017-08-22T04:18:23.004Z,75.10
2017-08-22T04:20:50.398Z,74.80
2017-08-22T04:23:17.405Z,75.00
2017-08-22T04:25:46.759Z,75.60
2017-08-22T04:28:13.666Z,75.90
2017-08-22T04:30:40.612Z,76.20
2017-08-22T04:33:07.486Z,76.30
2017-08-22T04:35:34.488Z,76.30
2017-08-22T04:38:13.449Z,76.00
2017-08-22T04:40:41.165Z,75.30
2017-08-22T04:43:08.095Z,75.30
2017-08-22T04:45:35.028Z,74.90
2017-08-22T04:48:01.987Z,74.60
2017-08-22T04:50:28.916Z,74.40
2017-08-22T04:52:55.896Z,74.50
2017-08-22T04:55:22.817Z,73.90
2017-08-22T04:57:50.181Z,74.20
2017-08-22T05:00:17.169Z,74.50
2017-08-22T05:02:44.052Z,74.50
2017-08-22T05:05:11.203Z,74.70
2017-08-22T05:07:38.108Z,74.80
2017-08-22T05:10:05.065Z,75.00
2017-08-22T05:12:31.979Z,74.50
2017-08-22T05:14:58.952Z,74.20
2017-08-22T05:17:25.893Z,73.70
2017-08-22T05:19:52.798Z,73.50
2017-08-22T05:22:19.787Z,72.90
2017-08-22T05:24:46.737Z,72.30
2017-08-22T05:27:13.697Z,71.50
2017-08-22T05:29:41.454Z,70.60
2017-08-22T05:32:09.188Z,71.50
2017-08-22T05:34:36.203Z,70.90
2017-08-22T05:37:03.068Z,71.30
2017-08-22T05:39:30.147Z,72.20
2017-08-22T05:41:57.112Z,72.40
2017-08-22T05:44:24.748Z,72.20
2017-08-22T05:46:51.767Z,72.20
2017-08-22T05:49:23.563Z,72.40
2017-08-22T05:51:50.586Z,72.30
2017-08-22T05:54:17.508Z,71.60
2017-08-22T05:56:44.510Z,71.50
2017-08-22T05:59:12.196Z,70.60
2017-08-22T06:01:40.382Z,69.60
2017-08-22T06:04:07.360Z,69.60
2017-08-22T06:06:34.331Z,69.00
2017-08-22T06:09:12.280Z,69.40
2017-08-22T06:11:40.206Z,68.50
2017-08-22T06:14:07.078Z,69.90
2017-08-22T06:16:35.361Z,70.10
2017-08-22T06:19:18.136Z,69.40
2017-08-22T06:21:46.593Z,69.40
2017-08-22T06:24:13.539Z,68.90
2017-08-22T06:26:40.489Z,68.70
2017-08-22T06:29:07.525Z,69.00
2017-08-22T06:31:34.384Z,67.50
2017-08-22T06:34:01.523Z,67.70
2017-08-22T06:36:28.500Z,68.00
2017-08-22T06:38:55.479Z,67.10
2017-08-22T06:41:23.104Z,66.50
2017-08-22T06:43:50.019Z,66.50
2017-08-22T06:46:17.039Z,67.00
2017-08-22T06:48:44.704Z,65.80
2017-08-22T06:51:11.670Z,65.80
2017-08-22T06:53:38.770Z,66.30
2017-08-22T06:56:05.714Z,65.40
2017-08-22T06:58:32.606Z,64.90
2017-08-22T07:01:00.310Z,63.40
2017-08-22T07:03:27.276Z,63.40
2017-08-22T07:05:54.157Z,63.40
2017-08-22T07:08:21.811Z,63.00
2017-08-22T07:10:48.792Z,63.10
2017-08-22T07:13:15.725Z,61.40
2017-08-22T07:15:42.722Z,61.30
2017-08-22T07:18:09.682Z,59.70
2017-08-22T07:20:36.605Z,61.50
2017-08-22T07:23:03.998Z,60.50
2017-08-22T07:25:31.380Z,60.70
2017-08-22T07:27:58.617Z,60.30
2017-08-22T07:30:26.637Z,59.10
2017-08-22T07:32:54.841Z,59.10
2017-08-22T07:35:22.286Z,58.80
2017-08-22T07:37:49.977Z,58.40
2017-08-22T07:40:17.322Z,58.10
2017-08-22T07:42:47.336Z,57.20
2017-08-22T07:45:15.216Z,56.50
2017-08-22T07:47:42.922Z,57.10
2017-08-22T07:50:11.263Z,56.20
2017-08-22T07:52:39.648Z,56.30
2017-08-22T07:55:07.260Z,56.10
2017-08-22T07:57:34.671Z,56.50
2017-08-22T08:00:02.855Z,57.30
2017-08-22T08:02:29.762Z,56.60
2017-08-22T08:04:57.111Z,55.40
2017-08-22T08:07:24.525Z,54.70
2017-08-22T08:09:52.027Z,52.70
2017-08-22T08:12:20.289Z,50.80
2017-08-22T08:14:47.796Z,50.80
2017-08-22T08:17:15.496Z,50.70
2017-08-22T08:19:42.408Z,50.70
2017-08-22T08:22:10.168Z,43.60
2017-08-22T08:24:38.120Z,45.30
2017-08-22T08:27:05.080Z,45.30
2017-08-22T08:29:32.064Z,45.60
2017-08-22T08:32:00.820Z,44.60
2017-08-22T08:34:31.446Z,44.20
2017-08-22T08:36:59.009Z,42.70
2017-08-22T08:39:29.925Z,40.00
2017-08-22T08:41:59.176Z,39.90
2017-08-22T08:44:28.015Z,38.00
2017-08-22T08:46:56.523Z,38.00
2017-08-22T08:49:24.224Z,38.60
2017-08-22T08:51:55.861Z,38.50
2017-08-22T08:54:22.962Z,37.90
2017-08-22T08:56:49.852Z,37.40
2017-08-22T08:59:16.724Z,35.20
2017-08-22T09:01:43.661Z,33.00
2017-08-22T09:04:10.536Z,31.40
2017-08-22T09:06:37.414Z,29.70
2017-08-22T09:09:04.492Z,29.50
2017-08-22T09:11:31.436Z,29.40
2017-08-22T09:13:58.382Z,29.10
2017-08-22T09:16:25.971Z,29.40
2017-08-22T09:18:52.922Z,29.40
2017-08-22T09:21:19.868Z,28.60
2017-08-22T09:23:46.829Z,28.00
2017-08-22T09:26:13.752Z,27.20
2017-08-22T09:28:40.724Z,25.70
2017-08-22T09:31:07.665Z,27.50
2017-08-22T09:33:34.648Z,27.50
2017-08-22T09:36:01.620Z,26.00
2017-08-22T09:38:29.220Z,26.80
2017-08-22T09:40:56.251Z,26.80
2017-08-22T09:43:23.216Z,27.10
2017-08-22T09:45:50.104Z,28.10
2017-08-22T09:48:17.150Z,27.20
2017-08-22T09:50:44.053Z,27.40
2017-08-22T09:53:10.948Z,26.30
2017-08-22T09:55:37.935Z,28.80
2017-08-22T09:58:04.812Z,29.40
2017-08-22T10:00:31.733Z,28.80
2017-08-22T10:02:58.689Z,29.20
2017-08-22T10:05:25.575Z,28.80
2017-08-22T10:07:53.198Z,30.20
2017-08-22T10:10:20.136Z,30.10
2017-08-22T10:12:47.019Z,30.30
2017-08-22T10:15:13.897Z,29.00
2017-08-22T10:17:40.890Z,29.00
2017-08-22T10:20:08.181Z,30.20
2017-08-22T10:22:36.045Z,29.60
2017-08-22T10:25:03.658Z,29.50
2017-08-22T10:27:30.902Z,30.10
2017-08-22T10:29:58.177Z,29.70
2017-08-22T10:32:29.041Z,31.10
2017-08-22T10:34:56.785Z,28.10
2017-08-22T10:37:26.448Z,27.90
2017-08-22T10:39:54.039Z,31.20
2017-08-22T10:42:21.329Z,30.80
2017-08-22T10:44:49.166Z,29.00
2017-08-22T10:49:51.393Z,28.00
2017-08-22T10:52:19.494Z,29.30
2017-08-22T10:54:46.781Z,29.30
2017-08-22T10:57:13.717Z,30.00
2017-08-22T10:59:40.688Z,29.90
2017-08-22T11:02:07.554Z,29.60
2017-08-22T11:04:35.165Z,28.40
2017-08-22T11:07:09.797Z,28.40
2017-08-22T11:09:36.689Z,27.60
2017-08-22T11:12:04.353Z,28.60
2017-08-22T11:14:32.040Z,28.80
2017-08-22T11:16:58.924Z,28.70
2017-08-22T11:19:25.898Z,29.10
2017-08-22T11:21:52.774Z,29.90
2017-08-22T11:24:19.717Z,30.40
2017-08-22T11:26:47.364Z,30.10
2017-08-22T11:29:15.205Z,30.40
2017-08-22T11:31:42.628Z,30.20
2017-08-22T11:34:09.834Z,31.50
2017-08-22T11:36:37.171Z,31.70
2017-08-22T11:39:05.337Z,29.20
2017-08-22T11:41:32.693Z,29.10
2017-08-22T11:44:07.985Z,30.00
2017-08-22T11:46:36.511Z,29.40
2017-08-22T11:49:06.548Z,29.00
2017-08-22T11:51:35.369Z,29.00
2017-08-22T11:54:03.030Z,30.00
2017-08-22T11:56:30.010Z,30.60
2017-08-22T11:58:56.929Z,30.40
2017-08-22T12:01:24.677Z,33.30
2017-08-22T12:03:52.910Z,32.10
2017-08-22T12:06:19.932Z,31.70
2017-08-22T12:08:51.467Z,31.50
2017-08-22T12:11:23.472Z,30.90
2017-08-22T12:13:52.515Z,31.30
2017-08-22T12:16:22.252Z,31.50
2017-08-22T12:18:52.770Z,29.90
2017-08-22T12:21:24.735Z,29.00
2017-08-22T12:23:52.862Z,30.10
2017-08-22T12:26:20.325Z,29.60
2017-08-22T12:28:47.698Z,30.00
2017-08-22T12:31:15.026Z,29.50
2017-08-22T12:33:42.192Z,29.20
2017-08-22T12:36:09.950Z,29.10
2017-08-22T12:38:38.076Z,31.10
2017-08-22T12:41:05.585Z,30.30
2017-08-22T12:43:40.337Z,29.60
2017-08-22T12:46:08.171Z,28.90
2017-08-22T12:48:35.620Z,29.80
2017-08-22T12:51:02.559Z,31.80
2017-08-22T12:53:29.524Z,31.70
2017-08-22T12:55:56.582Z,31.30
2017-08-22T12:58:23.627Z,30.50
2017-08-22T13:00:50.553Z,30.80
2017-08-22T13:03:17.512Z,31.90
2017-08-22T13:05:44.501Z,32.10
2017-08-22T13:08:12.128Z,30.90
2017-08-22T13:10:39.046Z,30.90
2017-08-22T13:13:06.045Z,32.20
2017-08-22T13:15:33.052Z,30.90
2017-08-22T13:17:59.939Z,30.50
2017-08-22T13:20:26.877Z,28.70
2017-08-22T13:22:54.023Z,30.50
2017-08-22T13:25:22.696Z,28.90
2017-08-22T13:27:53.853Z,30.50
2017-08-22T13:30:20.847Z,30.30
2017-08-22T13:32:47.783Z,29.40
2017-08-22T13:35:14.786Z,30.80
2017-08-22T13:37:41.767Z,29.00
2017-08-22T13:40:09.404Z,29.20
2017-08-22T13:42:36.330Z,29.50
2017-08-22T13:45:03.336Z,30.00
2017-08-22T13:47:30.271Z,29.30
2017-08-22T13:49:58.069Z,29.90
2017-08-22T13:52:24.971Z,29.90
2017-08-22T13:54:51.911Z,31.10
2017-08-22T13:57:18.908Z,31.60
2017-08-22T13:59:45.874Z,30.70
2017-08-22T14:02:12.845Z,30.30
2017-08-22T14:04:39.858Z,32.50
2017-08-22T14:07:06.741Z,30.90
2017-08-22T14:09:33.768Z,31.80
2017-08-22T14:12:00.708Z,30.40
2017-08-22T14:14:27.661Z,32.40
2017-08-22T14:16:54.684Z,32.20
2017-08-22T14:19:21.573Z,32.80
2017-08-22T14:21:48.449Z,32.80
2017-08-22T14:24:16.204Z,32.60
2017-08-22T14:26:43.849Z,32.60
2017-08-22T14:29:10.812Z,33.00
2017-08-22T14:31:37.693Z,33.00
2017-08-22T14:34:04.568Z,33.80
2017-08-22T14:36:31.508Z,32.30
2017-08-22T14:38:58.397Z,33.10
2017-08-22T14:41:26.091Z,33.60
2017-08-22T14:43:53.001Z,33.10
2017-08-22T14:46:19.960Z,32.80
2017-08-22T14:48:46.841Z,32.00
2017-08-22T14:51:13.907Z,32.20
2017-08-22T14:53:40.920Z,31.80
2017-08-22T14:56:07.869Z,31.50
2017-08-22T14:58:34.787Z,32.90
2017-08-22T15:01:01.808Z,31.80
2017-08-22T15:03:28.690Z,32.40
2017-08-22T15:06:00.785Z,33.50
2017-08-22T15:08:28.322Z,32.90
2017-08-22T15:10:55.220Z,33.70
2017-08-22T15:13:22.205Z,33.50
2017-08-22T15:15:49.969Z,33.40
2017-08-22T15:18:25.390Z,33.70
2017-08-22T15:20:53.373Z,33.70
2017-08-22T15:23:20.566Z,32.50
2017-08-22T15:25:47.790Z,33.90
2017-08-22T15:28:15.671Z,35.00
2017-08-22T15:30:47.816Z,35.00
2017-08-22T15:33:15.610Z,35.00
2017-08-22T15:35:43.052Z,34.70
2017-08-22T15:38:10.622Z,34.40
2017-08-22T15:40:38.064Z,34.10
2017-08-22T15:43:06.099Z,34.20
2017-08-22T15:45:33.997Z,34.10
2017-08-22T15:48:02.207Z,33.80
2017-08-22T15:50:31.599Z,33.70
2017-08-22T15:53:00.159Z,32.70
2017-08-22T15:55:29.860Z,34.20
2017-08-22T15:57:57.944Z,34.20
2017-08-22T16:00:25.479Z,35.50
2017-08-22T16:02:54.063Z,35.50
2017-08-22T16:05:26.398Z,37.40
2017-08-22T16:07:55.966Z,36.30
2017-08-22T16:10:24.753Z,36.00
2017-08-22T16:12:54.591Z,35.50
2017-08-22T16:15:22.872Z,35.50
2017-08-22T16:17:50.380Z,34.40
2017-08-22T16:20:20.438Z,34.20
2017-08-22T16:22:49.111Z,35.40
2017-08-22T16:25:16.032Z,33.30
2017-08-22T16:27:42.929Z,35.20
2017-08-22T16:30:10.628Z,35.90
2017-08-22T16:32:37.537Z,35.90
2017-08-22T16:35:04.412Z,35.90
2017-08-22T16:37:31.429Z,35.80
2017-08-22T16:39:59.067Z,35.80
2017-08-22T16:42:26.057Z,35.70
2017-08-22T16:44:53.009Z,36.30
2017-08-22T16:47:19.895Z,36.20
2017-08-22T16:49:46.871Z,36.50
2017-08-22T16:52:13.799Z,36.00
2017-08-22T16:54:40.681Z,37.50
2017-08-22T16:57:07.681Z,37.60
2017-08-22T16:59:34.561Z,38.40
2017-08-22T17:02:02.253Z,37.90
2017-08-22T17:04:29.215Z,37.90
2017-08-22T17:06:56.297Z,36.40
2017-08-22T17:09:23.289Z,36.00
2017-08-22T17:11:50.166Z,37.20
2017-08-22T17:14:17.148Z,37.30
2017-08-22T17:16:44.884Z,37.60
2017-08-22T17:19:15.770Z,37.00
2017-08-22T17:21:43.732Z,37.60
2017-08-22T17:24:11.988Z,37.70
2017-08-22T17:26:38.956Z,38.30
2017-08-22T17:29:05.933Z,37.50
2017-08-22T17:31:32.792Z,38.10
2017-08-22T17:33:59.700Z,38.70
2017-08-22T17:39:23.292Z,38.70
2017-08-22T17:41:58.192Z,39.40
2017-08-22T17:44:34.642Z,38.60
2017-08-22T17:47:09.244Z,39.80
2017-08-22T17:49:44.384Z,39.00
2017-08-22T17:52:18.400Z,39.60
2017-08-22T17:54:46.524Z,40.60
2017-08-22T17:57:14.230Z,41.10
2017-08-22T17:59:41.134Z,40.90
2017-08-22T18:02:08.768Z,41.30
2017-08-22T18:04:35.741Z,41.30
2017-08-22T18:07:02.641Z,41.60
2017-08-22T18:09:29.609Z,41.90
2017-08-22T18:12:01.718Z,41.80
2017-08-22T18:14:28.611Z,42.60
2017-08-22T18:16:55.530Z,43.00
2017-08-22T18:19:22.515Z,43.00
2017-08-22T18:21:49.408Z,42.90
2017-08-22T18:24:16.317Z,43.40
2017-08-22T18:26:43.350Z,43.70
2017-08-22T18:29:10.320Z,44.70
2017-08-22T18:31:37.944Z,45.10
2017-08-22T18:34:04.945Z,45.00
2017-08-22T18:36:32.585Z,45.20
2017-08-22T18:39:00.224Z,44.40
2017-08-22T18:41:27.199Z,44.40
2017-08-22T18:43:54.140Z,45.50
2017-08-22T18:46:21.041Z,45.10
2017-08-22T18:48:47.913Z,45.70
2017-08-22T18:51:14.881Z,46.10
2017-08-22T18:53:42.428Z,47.00
2017-08-22T18:56:09.408Z,46.20
2017-08-22T18:58:36.365Z,45.80
2017-08-22T19:01:04.429Z,46.90
2017-08-22T19:03:32.810Z,48.10
2017-08-22T19:06:03.961Z,52.20
2017-08-22T19:08:31.579Z,53.10
2017-08-22T19:10:58.546Z,53.00
2017-08-22T19:13:25.422Z,53.60
2017-08-22T19:15:53.093Z,55.30
2017-08-22T19:18:19.975Z,55.20
2017-08-22T19:20:46.965Z,55.50
2017-08-22T19:23:13.873Z,56.00
2017-08-22T19:25:40.776Z,56.20
2017-08-22T19:28:07.725Z,57.00
2017-08-22T19:30:34.613Z,57.70
2017-08-22T19:33:01.585Z,57.80
2017-08-22T19:35:29.217Z,57.70
2017-08-22T19:37:56.943Z,57.70
2017-08-22T19:40:23.852Z,57.70
2017-08-22T19:42:50.831Z,57.80
2017-08-22T19:45:17.846Z,58.20
2017-08-22T19:47:44.745Z,57.90
2017-08-22T19:50:11.701Z,58.40
2017-08-22T19:52:38.725Z,58.20
2017-08-22T19:55:05.615Z,58.30
2017-08-22T19:57:32.563Z,58.50
2017-08-22T19:59:59.410Z,58.40
2017-08-22T20:02:26.349Z,58.80
2017-08-22T20:04:53.258Z,58.90
2017-08-22T20:07:20.150Z,58.90
2017-08-22T20:09:47.128Z,58.70
2017-08-22T20:12:14.734Z,58.80
2017-08-22T20:14:41.628Z,58.70
2017-08-22T20:17:09.335Z,58.40
2017-08-22T20:19:36.221Z,58.40
2017-08-22T20:22:03.104Z,58.00
2017-08-22T20:24:30.252Z,57.40
2017-08-22T20:26:57.188Z,57.00
2017-08-22T20:29:24.144Z,56.00
2017-08-22T20:31:51.048Z,56.40
2017-08-22T20:34:18.016Z,56.20
2017-08-22T20:36:45.626Z,55.10
2017-08-22T20:39:12.523Z,55.10
2017-08-22T20:41:40.254Z,55.00
2017-08-22T20:44:07.147Z,55.00
2017-08-22T20:46:34.836Z,55.10
2017-08-22T20:49:01.711Z,55.00
2017-08-22T20:51:28.586Z,55.10
2017-08-22T20:53:55.620Z,55.00
2017-08-22T20:56:22.496Z,55.50
2017-08-22T20:58:49.442Z,55.30
2017-08-22T21:01:17.748Z,55.40
2017-08-22T21:03:44.672Z,55.40
2017-08-22T21:06:12.359Z,55.20
2017-08-22T21:08:39.253Z,55.20
2017-08-22T21:11:06.296Z,54.90
2017-08-22T21:13:33.222Z,54.90
2017-08-22T21:16:00.168Z,55.00
2017-08-22T21:18:27.044Z,55.00
2017-08-22T21:20:54.688Z,55.40
2017-08-22T21:23:22.220Z,55.30
2017-08-22T21:25:49.705Z,55.30
2017-08-22T21:28:17.027Z,55.40
2017-08-22T21:30:45.947Z,55.70
2017-08-22T21:33:13.689Z,56.40
2017-08-22T21:35:46.365Z,56.60
2017-08-22T21:38:14.880Z,56.40
2017-08-22T21:40:43.728Z,56.30
2017-08-22T21:43:11.250Z,56.90
2017-08-22T21:48:29.512Z,57.80
2017-08-22T21:50:56.582Z,57.80
2017-08-22T21:53:28.501Z,58.20
2017-08-22T21:56:00.689Z,58.10
2017-08-22T21:58:27.825Z,58.20
2017-08-22T22:00:57.046Z,57.50
2017-08-22T22:03:27.764Z,57.70
2017-08-22T22:05:55.953Z,57.30
2017-08-22T22:08:24.242Z,57.80
2017-08-22T22:10:53.151Z,58.40
2017-08-22T22:13:21.166Z,59.00
2017-08-22T22:15:50.311Z,59.20
2017-08-22T22:18:20.007Z,59.00
2017-08-22T22:20:50.802Z,58.90
2017-08-22T22:23:19.294Z,59.80
2017-08-22T22:25:46.783Z,59.40
2017-08-22T22:28:14.194Z,59.10
2017-08-22T22:30:43.413Z,59.70
2017-08-22T22:33:10.419Z,59.70
2017-08-22T22:35:38.158Z,60.00
2017-08-22T22:38:05.033Z,59.50
2017-08-22T22:40:31.926Z,59.70
2017-08-22T22:42:58.921Z,60.50
2017-08-22T22:45:25.859Z,61.10
2017-08-22T22:47:53.564Z,61.90
2017-08-22T22:50:20.440Z,61.80
2017-08-22T22:52:47.377Z,62.30
2017-08-22T22:55:14.342Z,62.50
2017-08-22T22:57:41.318Z,63.00
2017-08-22T23:00:08.266Z,61.90
2017-08-22T23:02:35.146Z,61.90
2017-08-22T23:05:02.277Z,62.00
2017-08-22T23:07:29.237Z,62.60
2017-08-22T23:09:56.097Z,63.40
2017-08-22T23:12:23.032Z,63.80
2017-08-22T23:14:49.904Z,65.00
2017-08-22T23:17:16.848Z,64.70
2017-08-22T23:19:43.728Z,65.40
2017-08-22T23:22:10.713Z,65.80
2017-08-22T23:24:37.572Z,65.80
2017-08-22T23:27:04.485Z,66.00
2017-08-22T23:29:31.465Z,65.60
2017-08-22T23:31:58.447Z,65.50
2017-08-22T23:34:25.373Z,65.70
2017-08-22T23:36:52.240Z,66.40
2017-08-22T23:39:19.115Z,66.50
2017-08-22T23:41:46.039Z,66.40
2017-08-22T23:44:12.967Z,65.90
2017-08-22T23:46:40.649Z,65.10
2017-08-22T23:49:07.585Z,65.10
2017-08-22T23:51:34.561Z,64.90
2017-08-22T23:54:01.455Z,65.10
2017-08-22T23:56:28.402Z,65.40
2017-08-22T23:58:55.340Z,65.60
